EFKE

Kemi-Tornio Airport

Kemi / Tornio, Finland
METAR EFKE 181320Z 02005KT CAVOK M18/M20 Q0996
Observed Flight Rules
Jan-18 @ 13:20 UTC (30 minutes ago) Visual Flight Rules
Wind Visibility Clouds
20° at 5 knots 10,000+ meters
  • Clear skies
Temperatures Readings
Current -18°C / -0°F
Dewpoint -20°C / -4°F
Humidity 84%
Altimeter 29.41" Hg
Pressure 995.92 hPa
Elevation 15
METAR EFKE 181320Z 02005KT CAVOK M18/M20 Q0996
Observed Flight Rules
Jan-18 @ 13:20 UTC
(30 minutes ago)
VFR
Wind Visibility
20° at 5 knots 10,000+ meters
Clouds
  • Clear skies
Temperature Dewpoint
-18°C / -0°F -20°C / -4°F
Humidity Altimeter Pressure
84% 29.41" Hg 995.92 hPa